Airport View

Enter AWOS ICAO identifier for current METAR.

ex. KFNL

KAHN 202351Z AUTO 07003KT 10SM CLR 21/13 A3024 RMK AO2 SLP239 T02110133 10283 20206 53002 PWINO

21 Sep 2019 00:39

Frequency: 132.875

Phone: 706-613-7373

Other Area AWOS: KWDR - KJCA - KD73 - K3J7

TAF KAHN 202340Z 2100/2124 09003KT P6SM SKC FM210900 00000KT P6SM FEW250 FM211500 00000KT P6SM FEW040 FM212000 10004KT P6SM SKC